TOP > 外国特許検索

外国特許検索

表示件数 詳細検索
特許の状態
出願国

リセット

該当件数 4750件

No. 出願番号
公報番号
出願国
発明の名称
掲載日
更新日
データ提供機関
601 2006JP317040 WO 2007/026728 世界知的所有権機関(WIPO) CERAMIC SOLID-PHASE FOAM AND PROCESS FOR PRODUCING THE SAME 新技術説明会 2007/11/16 2008/10/15 岡山大学
602 2005JP008884 WO 2005/112948 世界知的所有権機関(WIPO) DRUG FOR REMEDY OR TREATMENT OF WOUND 新技術説明会 実績あり 2007/11/30 2008/09/03 鳥取大学
603 2005JP022188 WO 2006/059717 世界知的所有権機関(WIPO) METHOD OF ANALYTE ORGANISM IDENTIFICATION, INTERNAL STANDARD DNA COMPOSITION FOR USE IN THIS METHOD AND PROCESS FOR PRODUCING THE SAME 2007/12/28 2008/09/03 埼玉大学
604 2005JP019229 WO 2006/043604 世界知的所有権機関(WIPO) SURFACE ACOUSTIC WAVE EXCITATION DEVICE 2008/01/04 2008/09/03 埼玉大学
605 2006JP323774 WO 2007/063873 世界知的所有権機関(WIPO) POLISHING METHOD AND POLISHING APPARATUS 2008/01/11 2008/10/16 埼玉大学
606 2006JP317476 WO 2007/060782 世界知的所有権機関(WIPO) MULTIFREQUENCY MICROSTRIP ANTENNA 2008/01/11 2008/10/16 埼玉大学
607 2006JP315575 WO 2007/029438 世界知的所有権機関(WIPO) NONCONTACT POWER FEEDER 2008/01/11 2008/10/16 埼玉大学
608 2006JP301557 WO 2006/082807 世界知的所有権機関(WIPO) EQUIVALENT-CAPACITANCE TYPE ACTUATOR DRIVE DEVICE 2008/01/11 2008/09/03 埼玉大学
609 2002JP002802 WO 2002/093615 世界知的所有権機関(WIPO) SCANNING ATOM PROBE AND ANALYSIS METHOD USING SCANNING ATOM PROBE 2008/01/18 2008/09/03 金沢工業大学
610 2007JP056522 WO 2007/111342 世界知的所有権機関(WIPO) HIGH-STRENGTH HIGH-TOUGHNESS MAGNESIUM ALLOY AND METHOD FOR PRODUCING THE SAME 2008/01/18 2008/10/16 熊本大学
611 2007JP062301 WO 2007/148682 世界知的所有権機関(WIPO) METHOD OF PRODUCING BIOACTIVE COMPLEX MATERIAL 2008/02/08 2008/10/16 京都大学
612 2007JP060075 WO 2007/135931 世界知的所有権機関(WIPO) COMMUNICATION NETWORK DESIGNING METHOD, PROGRAM, AND RECORDING MEDIUM 2008/03/28 2008/10/16 日大NUBIC
613 2006JP306783 WO 2007/110966 世界知的所有権機関(WIPO) METHOD FOR PREPARATION OF HEPATOCYTE USING ES CELL 2008/03/28 2008/10/16 日大NUBIC
614 2007JP050609 WO 2007/083670 世界知的所有権機関(WIPO) IMPLANTER 2008/03/28 2008/10/16 日大NUBIC
615 2006JP317630 WO 2007/029727 世界知的所有権機関(WIPO) MULTI-VALUE MODULATION/DEMODULATION METHOD AND MULTI-VALUE MODULATION/DEMODULATION DEVICE 2008/03/28 2008/10/16 日大NUBIC
616 2007JP054234 WO 2007/111086 世界知的所有権機関(WIPO) DISASTER RECOVERY DEVICE, DISASTER RECOVERY PROGRAM, ITS RECORDING MEDIUM, AND DISASTER RECOVERY SYSTEM 新技術説明会 2008/04/11 2008/10/16 東京電機大学
617 2006JP325808 WO 2007/083489 世界知的所有権機関(WIPO) IN-PLANE EXPOSURE DEVICE AND IN-PLANE EXPOSURE METHOD 2008/04/11 2008/10/16 東京電機大学
618 2006JP317267 WO 2007/029601 世界知的所有権機関(WIPO) DEMULTIPLEXING CIRCUIT AND ITS DESIGNING METHOD 新技術説明会 2008/04/18 2008/10/16 電気通信大学
619 2004JP011568 WO 2005/015737 世界知的所有権機関(WIPO) SYSTEM ESTIMATION METHOD, PROGRAM, RECORDING MEDIUM, SYSTEM ESTIMATION DEVICE 新技術説明会 2008/04/25 2008/09/03 科学技術振興機構(JST)
620 2006JP320964 WO 2007/046504 世界知的所有権機関(WIPO) STETHOSCOPE HEART SOUND SIGNAL PROCESSING METHOD AND STETHOSCOPE DEVICE 新技術説明会 2008/05/23 2008/10/16 山口TLO
621 2005JP015395 WO 2006/025244 世界知的所有権機関(WIPO) GEL WITH LIQUID CRYSTAL STRUCTURE AND PROCESS FOR PRODUCING THE SAME 2008/06/06 2008/09/03 群馬大学
622 2007JP052783 WO 2007/094435 世界知的所有権機関(WIPO) TEMPERATURE SENSOR 2008/06/06 2008/10/16 岡山大学
623 2007JP067223 WO 2008/029804 世界知的所有権機関(WIPO) PERCHLORIC ACID ION TRAPPING AGENT 新技術説明会 2008/06/06 2008/10/16 静岡大学
624 2005JP023903 WO 2006/070805 世界知的所有権機関(WIPO) AIRWAY ESTABLISHMENT APPRATUS AND STEPLESS CONTROLLER TO BE USED THEREIN 2008/06/13 2008/09/03 久留米大学
625 2007JP063091 WO 2008/001882 世界知的所有権機関(WIPO) MEDICAL HOLDER AND METHOD OF USING THE MEDICAL HOLDER 2008/08/08 2008/10/16 自治医科大学
626 2007JP050013 WO 2007/122823 世界知的所有権機関(WIPO) TUMOR TARGET CELL CAPABLE OF PRODUCING VECTOR 2008/08/08 2008/10/16 自治医科大学
627 2006JP323379 WO 2007/061022 世界知的所有権機関(WIPO) MITOCHONDRIAL FUNCTION OF PROHIBITIN 2 (PHB2) 2008/08/08 2008/10/16 自治医科大学
628 2007JP059028 WO 2007/125982 世界知的所有権機関(WIPO) NOVEL CULTURED SILKWORM CELL ENABLING HIGHLY EFFICIENT BACULOVIRUS PRODUCTION AND PROTEIN PRODUCTION 2008/08/22 2008/08/21 九州大学
629 2007JP053297 WO 2007/105450 世界知的所有権機関(WIPO) HEAT REMOVING METHOD AND HEAT REMOVING APPARATUS 2008/08/22 2008/08/21 九州大学
630 2006JP324960 WO 2007/069692 世界知的所有権機関(WIPO) MONITORING OF INTRACELLULAR MITOCHONDRIAL LOCALIZATION 新技術説明会 2008/08/22 2008/08/21 九州大学
631 2006JP320703 WO 2007/049487 世界知的所有権機関(WIPO) SUBSTRATE FOR ANALYSIS FOR USE IN RAMAN SPECTROSCOPIC ANALYSIS AND SUBSTRATE ASSEMBLY FOR ANALYSIS 2008/08/22 2008/08/21 九州大学
632 2006JP312070 WO 2006/135026 世界知的所有権機関(WIPO) ADSORPTION REFRIGERATOR 2008/08/22 2008/08/21 九州大学
633 2006JP307745 WO 2006/112327 世界知的所有権機関(WIPO) LK3 GENE REGULATING RICE GRAIN LENGTH AND THE USE THEREOF 2008/08/22 2008/08/21 九州大学
634 2005JP009364 WO 2005/119210 世界知的所有権機関(WIPO) TEST CHIP HAVING LIGHT AMPLIFICATION ELEMENT MOUNTED THEREON 2008/08/22 2008/08/21 九州大学
635 2007JP073788 WO 2008/078537 世界知的所有権機関(WIPO) JIGGLE MEASURING SYSTEM AND JIGGLE MEASURING METHOD 新技術説明会 2008/09/12 2008/11/06 電気通信大学
636 2007JP051965 WO 2008/012957 世界知的所有権機関(WIPO) INFORMATION PROCESSING DEVICE AND METHOD, PROGRAM, AND RECORDING MEDIUM 2008/09/12 2008/12/18 電気通信大学
637 2006JP323031 WO 2007/058326 世界知的所有権機関(WIPO) METHOD FOR DETECTING TARGET NUCLEIC ACID WITH SPECIFIC BASE SEQUENCE AND SET OF NUCLEIC ACIDS FOR DETECTION 新技術説明会 2008/09/12 2008/09/09 科学技術振興機構(JST)
638 2007JP059168 WO 2007/126052 世界知的所有権機関(WIPO) FLUORESCENT COMPOUND AND LABELING AGENT COMPRISING THE SAME 2008/09/12 2008/09/09 慶應義塾大学
639 2007JP067061 WO 2008/029744 世界知的所有権機関(WIPO) DIAMINE COMPOUND HAVING PHOSPHORYLCHOLINE GROUP, POLYMER THEREOF AND METHOD FOR PRODUCING THE SAME 新技術説明会 2008/09/12 2009/01/15 東海大学
640 2007JP051003 WO 2007/086382 世界知的所有権機関(WIPO) TRANSGENIC NON-HUMAN MAMMAL CAPABLE OF RECURRING CONDITION OF HUMAN RHEUMATOID ARTHRITIS 新技術説明会 2008/09/12 2008/12/22 名古屋市立大学
641 2007JP061784 WO 2007/145195 世界知的所有権機関(WIPO) ORGANIC ACID CATALYST FOR POLYLACTIC ACID SYNTHESIS 実績あり 2008/09/12 2008/12/18 京都工芸繊維大学
642 2007JP055885 WO 2007/119488 世界知的所有権機関(WIPO) FREQUENCY MEASURING APPARATUS AND FREQUENCY MEASURING METHOD 2008/09/12 2009/01/29 群馬大学
643 2007JP055957 WO 2007/111232 世界知的所有権機関(WIPO) PROCESS FOR PRODUCING GEL WITH LIQUID CRYSTAL STRUCTURE, AND GEL WITH LIQUID CRYSTAL STRUCTURE PRODUCED BY THE PROCESS 2008/09/12 2009/01/29 群馬大学
644 2007JP051689 WO 2007/088925 世界知的所有権機関(WIPO) FUEL BATTERY CELL, FUEL BATTERY UNIT, HEAT/POWER COGENERATION SYSTEM AND VEHICLE EQUIPPED WITH THE SYSTEM, AND METHOD OF ACTUATING FUEL BATTERY 2008/09/19 2008/12/18 立命館大学
645 2007JP059366 WO 2007/126115 世界知的所有権機関(WIPO) PREVENTION APPARATUS AND PREVENTION SYSTEM OF OSTEOPOROTIC CHANGE 新技術説明会 2008/09/19 2008/11/06 鹿児島大学
646 2007JP059350 WO 2007/126111 世界知的所有権機関(WIPO) PEPTIDE CAPABLE OF INHIBITING AMYLOID- FIBROSIS 2008/09/19 2008/11/06 鹿児島大学
647 2007JP052113 WO 2008/015800 世界知的所有権機関(WIPO) SPEECH PROCESSING METHOD, SPEECH PROCESSING PROGRAM, AND SPEECH PROCESSING DEVICE 新技術説明会 実績あり 2008/09/26 2009/01/15 奈良先端科学技術大学院大学
648 2007JP053667 WO 2008/007475 世界知的所有権機関(WIPO) ACETYLTRANSFERASE Mpr1 MUTANT 2008/09/26 2009/01/15 奈良先端科学技術大学院大学
649 2007JP058989 WO 2007/129585 世界知的所有権機関(WIPO) METHOD AND DEVICE FOR EVALUATING SOLAR CELL AND USE OF THE SOLAR CELL 実績あり 2008/09/26 2009/01/15 奈良先端科学技術大学院大学
650 2007JP000401 WO 2007/129451 世界知的所有権機関(WIPO) IMAGE SENSOR 2008/09/26 2009/01/15 奈良先端科学技術大学院大学
651 2006JP317470 WO 2007/029652 世界知的所有権機関(WIPO) BLOOD-SUGAR MEASURING APPARATUS AND METHOD 新技術説明会 2008/10/31 2008/10/31 群馬大学
652 2006JP306370 WO 2006/104176 世界知的所有権機関(WIPO) INSTANTANEOUS FLOW MEASURING INSTRUMENT OF GAS FUEL INJECTOR 新技術説明会 2008/10/31 2008/10/31 群馬大学
653 2007JP061010 WO 2008/047493 世界知的所有権機関(WIPO) REMOTE CONTROL SYSTEM 2008/11/27 2008/11/26 奈良先端科学技術大学院大学
654 2007JP064679 WO 2008/013232 世界知的所有権機関(WIPO) SPHERICAL ABERRATION CORRECTION MODERATING TYPE LENS, SPHERICAL ABERRATION CORRECTION LENS SYSTEM, ELECTRON SPECTROSCOPY DEVICE, AND OPTICAL ELECTRON MICROSCOPE 2008/11/27 2008/11/26 奈良先端科学技術大学院大学
655 2007JP055855 WO 2008/035468 世界知的所有権機関(WIPO) THIN NANODIAMOND FILM HAVING n-TYPE CONDUCTIVITY AND PROCESS FOR PRODUCING THE SAME 2008/11/27 2013/07/10 九州大学
656 2007JP071236 WO 2008/053924 世界知的所有権機関(WIPO) METHOD OF CLASSIFYING PROTEIN/COMPOUND PAIRS 2008/11/27 2008/11/26 慶應義塾大学
657 2007JP068481 WO 2008/032875 世界知的所有権機関(WIPO) PLATELET THROMBUS FORMATION SIMULATOR 2008/11/27 2008/11/26 慶應義塾大学
658 2007JP070738 WO 2008/056541 世界知的所有権機関(WIPO) DIAGNOSTIC DEVICE, DIAGNOSTIC METHOD, PROGRAM, AND RECORDING MEDIUM 実績あり 2008/12/05 2011/05/25 九州工業大学
659 2007JP068505 WO 2008/041537 世界知的所有権機関(WIPO) GENERATION DEVICE, GENERATION METHOD, PROGRAM AND RECORDING MEDIUM 実績あり 2008/12/05 2011/05/25 九州工業大学
660 2007JP062929 WO 2008/001818 世界知的所有権機関(WIPO) CONVERSION DEVICE, CONVERSION METHOD, PROGRAM, AND RECORDING MEDIUM 実績あり 2008/12/05 2013/07/31 九州工業大学
661 2007JP068675 WO 2008/038662 世界知的所有権機関(WIPO) RADIATION DOSIMETER AND RADIATION DOSE COMPUTING PROGRAM 2009/01/09 2008/12/26 北海道大学
662 2005JP023633 WO 2006/073068 世界知的所有権機関(WIPO) SURFACE POSITION MEASURING METHOD AND SURFACE POSITION MEASURING DEVICE 2009/01/09 2008/12/26 北海道大学
663 2005JP016956 WO 2006/030834 世界知的所有権機関(WIPO) SIGNAL ARRIVAL DIRECTION DEDUCING DEVICE, SIGNAL ARRIVAL DIRECTION DEDUCING METHOD, AND SIGNAL ARRIVAL DIRECTION DEDUCING PROGRAM 2009/01/09 2008/12/26 北海道大学
664 2005JP016422 WO 2006/028135 世界知的所有権機関(WIPO) DEVICE AND METHOD FOR MEASURING MOLECULE USING GEL SUBSTRATE MATERIAL 2009/01/09 2008/12/26 北海道大学
665 2005JP012689 WO 2006/011348 世界知的所有権機関(WIPO) MOLECULE MEASURING DEVICE AND MOLECULE MEASURING METHOD 2009/01/09 2008/12/26 北海道大学
666 2007JP071954 WO 2008/059810 世界知的所有権機関(WIPO) DRUG INJECTING DEVICE 新技術説明会 2009/01/23 2009/01/22 鹿児島大学
667 2007JP071754 WO 2008/054030 世界知的所有権機関(WIPO) IgG-BINDING PEPTIDE 2009/01/23 2009/01/22 鹿児島大学
668 2008JP050103 WO 2008/084797 世界知的所有権機関(WIPO) PRODUCTION METHOD AND PRODUCTION DEVICE OF ULTRAFINE FILAMENT 2009/01/23 2009/01/22 山梨大学
669 2007JP071551 WO 2008/056662 世界知的所有権機関(WIPO) EYELIDS OPENING DEVICE WITH DRAPE 2009/01/23 2009/01/22 久留米大学
670 2007JP058203 WO 2008/041385 世界知的所有権機関(WIPO) NOVEL ALKANE POLYOL DEHYDROGENASE 2009/01/23 2009/01/22 奈良先端科学技術大学院大学
671 2007JP073114 WO 2008/066138 世界知的所有権機関(WIPO) FLUORESCENT LABELING AGENT AND FLUORESCENT LABELING METHOD 2009/01/23 2009/01/22 島根大学
672 2008JP058621 WO 2008/149635 世界知的所有権機関(WIPO) SPUTTERING APPARATUS FOR FORMING THIN FILM 2009/01/30 2009/01/30 山口TLO
673 2008JP054729 WO 2008/120556 世界知的所有権機関(WIPO) THREE-DIMENSIONAL LEFT-HANDED METAMATERIAL 2009/01/30 2009/01/30 山口TLO
674 2008JP058605 WO 2008/140032 世界知的所有権機関(WIPO) FLUID POURING TYPE ACTUATOR 新技術説明会 2009/03/06 2009/03/03 中央大学
675 2007JP069075 WO 2008/044504 世界知的所有権機関(WIPO) METHOD FOR DETERMINING TONGUE CANCER 2009/03/13 2009/03/06 新潟大学
676 2008JP053240 WO 2008/105386 世界知的所有権機関(WIPO) REXINOID COMPOUND HAVING ALKOXY GROUP 新技術説明会 2009/03/27 2009/03/24 岡山大学
677 2007JP065012 WO 2008/018327 世界知的所有権機関(WIPO) DIAGNOSTIC AGENT 新技術説明会 2009/03/27 2009/03/24 岡山大学
678 2007JP062139 WO 2007/145325 世界知的所有権機関(WIPO) TEST METHOD FOR MALT LYMPHOMA AND KIT THEREFOR 2009/03/27 2009/03/24 岡山大学
679 2008JP053965 WO 2008/108410 世界知的所有権機関(WIPO) METHOD OF PRODUCING TISSUE ARRAY BLOCK, METHOD OF PRODUCING TISSUE ARRAY SHEET, TISSUE ARRAY BLOCK, TISSUE ARRAY CHIP, SYSTEM OF PRODUCING TISSUE ARRAY BLOCK AND SYSTEM OF PRODUCING TISSUE ARRAY SHEET 2009/03/27 2009/03/24 富山大学
680 2008JP052973 WO 2008/102847 世界知的所有権機関(WIPO) MEDICAL SUBSTITUTE MEMBRANE, USE THEREOF, AND METHOD FOR REPAIR OF MEMBRANE TISSUE IN LIVING BODY 2009/03/27 2009/03/24 富山大学
681 2007JP062019 WO 2008/026363 世界知的所有権機関(WIPO) DOUBLE REFRACTION MEASURING EQUIPMENT AND DOUBLE REFRACTION MEASURING METHOD 実績あり 2009/04/17 2013/07/01 東京電機大学
682 2008JP062733 WO 2009/014026 世界知的所有権機関(WIPO) SUCTION DEVICE, SUCTION SYSTEM, AND SUCTION METHOD 2009/05/15 2009/05/08 京都大学
683 2008JP058438 WO 2008/139980 世界知的所有権機関(WIPO) NOVEL LIVING RADICAL POLYMERIZATION METHOD USING PHOSPHORUS COMPOUND OR NITROGEN COMPOUND AS CATALYST 新技術説明会 2009/05/15 2009/05/08 京都大学
684 2008JP056137 WO 2008/123432 世界知的所有権機関(WIPO) DEVICE AND METHOD FOR ACQUIRING A FIELD BY MEASUREMENT 2009/05/15 2009/05/11 京都大学
685 2008JP068114 WO 2009/044902 世界知的所有権機関(WIPO) DIELECTROPHORESIS DEVICE AND METHOD 2009/12/04 2011/03/22 九州工業大学
686 2008JP069160 WO 2009/133639 世界知的所有権機関(WIPO) METHOD, DEVICE, AND PROGRAM FOR EVALUATING PARTICLE BEAM EMITTED FROM RADIATION SOURCE, RADIATION DETECTOR EVALUATION METHOD, CALIBRATION METHOD, DEVICE, AND RADIATION SOURCE 2009/12/11 2009/12/07 放射線医学総合研究所
687 2008JP058432 WO 2009/133628 世界知的所有権機関(WIPO) OPEN TYPE PET EQUIPMENT 2009/12/11 2009/12/07 放射線医学総合研究所
688 2008JP057035 WO 2009/125480 世界知的所有権機関(WIPO) RADIATION DETECTION METHOD, DEVICE AND POSITRON-EMISSION TOMOGRAPHIC DEVICE 2009/12/11 2009/12/07 放射線医学総合研究所
689 2008JP056451 WO 2009/122561 世界知的所有権機関(WIPO) OPEN TYPE PET DEVICE 2009/12/11 2009/12/07 放射線医学総合研究所
690 2008JP062297 WO 2009/008412 世界知的所有権機関(WIPO) DNA CHIP FOR PREDICTION OF OCCURRENCE OF LATE ADVERSE REACTION IN URINARY ORGAN AFTER RADIATION THERAPY, AND METHOD FOR PREDICTION OF OCCURRENCE OF LATE ADVERSE REACTION IN URINARY ORGAN AFTER RADIATION THERAPY USING THE SAME 2009/12/11 2009/12/07 放射線医学総合研究所
691 2007JP059973 WO 2008/139625 世界知的所有権機関(WIPO) GAMMA RAY DETECTOR AND METHOD OF RECONSTRUCTING GAMMA RAY 2009/12/11 2009/12/07 放射線医学総合研究所
692 2007JP058361 WO 2008/129666 世界知的所有権機関(WIPO) PET DEVICE AND METHOD FOR RECONSTITUTING IMAGE OF THE SAME 2009/12/11 2009/12/07 放射線医学総合研究所
693 2007JP057229 WO 2008/120396 世界知的所有権機関(WIPO) IMAGE RECONFIGURATION METHOD OF TOMOGRAPH, FAILURE DIAGNOSIS METHOD, TOMOGRAPH, AND MANAGEMENT PROGRAM OF SYSTEM MATRIX 2009/12/11 2009/12/07 放射線医学総合研究所
694 2007JP057151 WO 2008/026340 世界知的所有権機関(WIPO) METHOD OF PREDICTING METASTASIS OF ORAL CAVITY CANCER INTO CERVICAL LYMPH NODE AND DIAGNOSIS KIT TO BE USED IN THE PREDICTION 2009/12/11 2009/12/07 放射線医学総合研究所
695 2006JP326357 WO 2008/023451 世界知的所有権機関(WIPO) POSITRON EMISSION TOMOGRAPHY SCANNER AND RADIATION DETECTOR 2009/12/18 2010/05/24 放射線医学総合研究所
696 2008JP002286 WO 2009/028163 世界知的所有権機関(WIPO) FILTER AND METHOD OF FILTRATION 新技術説明会 2010/01/15 2010/05/24 九州大学
697 2008JP055535 WO 2008/117792 世界知的所有権機関(WIPO) FLUORESCENT LABELED FUSED PROTEIN FOR ASSAYING ADENOSINE TRIPHOSPHATE 2010/02/26 2010/05/21 立教大学
698 2009JP003090 WO 2010/004713 世界知的所有権機関(WIPO) NOVEL MICROORGANISM, AND PLANT DISEASE CONTROL AGENT USING THE MICROORGANISM 新技術説明会 2010/03/05 2010/05/21 山梨大学
699 2009JP055225 WO 2009/116551 世界知的所有権機関(WIPO) BONDED MASS OF ACCUMULATED NANOPARTICLES AND METHOD OF PRODUCING THE SAME 2010/03/05 2010/05/21 山梨大学
700 2008JP071991 WO 2009/069816 世界知的所有権機関(WIPO) IONIZATION METHOD, AND MASS-SPECTROSCOPIC METHOD AND APPARATUS UTILIZING THE IONIZATION METHOD 2010/03/05 2011/05/24 山梨大学

(7/48ページ)

PAGE TOP